Metar Cercanos

 

LEPA - Palma De Mallorc, Spain
Distance from station: ONO 38km
Actualización: Fri, 23-Jul-2021 7:30pm CEST
Despejado
Despejado
 Viento del S
Viento: S 11 km/h
Temperatura: 35°C
Rocío: 16°C
Humedad: 32%
Barómetro: 1011 hPa
Resumen: Despejado
Visibility: greater than 10 km
2021/07/23 17:30 LEPA 231730Z 17006KT CAVOK 35/16 Q1011 NOSIG
LEMH - Mahon/Menorca Is, Spain
Distance from station: ENE 105km
Actualización: Fri, 23-Jul-2021 7:30pm CEST
Despejado
Despejado
 Viento del SE
Viento: SE 17 km/h
Temperatura: 30°C
Indice Calor: 30°C
Rocío: 16°C
Humedad: 43%
Barómetro: 1012 hPa
Resumen: Despejado
Visibility: greater than 10 km
2021/07/23 17:30 LEMH 231730Z 14009KT CAVOK 30/16 Q1012
 
LEIB - Ibiza/Es Codola, Spain
Distance from station: OSO 165km
Actualización: Fri, 23-Jul-2021 7:30pm CEST
Despejado
Despejado
 Viento del E
Viento: E 13 km/h
Temperatura: 27°C
Indice Calor: 31°C
Rocío: 24°C
Humedad: 84%
Barómetro: 1010 hPa
Resumen: Despejado
Visibility: greater than 10 km
2021/07/23 17:30 LEIB 231730Z 09007KT 060V120 CAVOK 27/24 Q1010 NOSIG
LEBL - Barcelona Airpor, Spain
Distance from station: NNO 225km
Actualización: Fri, 23-Jul-2021 7:30pm CEST
Despejado
Despejado
 Viento del SSE
Viento: SSE 7 km/h
Temperatura: 27°C
Indice Calor: 29°C
Rocío: 22°C
Humedad: 74%
Barómetro: 1010 hPa
Resumen: Despejado
Visibility: greater than 10 km
2021/07/23 17:30 LEBL 231730Z 15004KT CAVOK 27/22 Q1010 NOSIG
 
LEVC - Valencia (civ/Mi, Spain
Distance from station: NO 188km
Actualización: Fri, 23-Jul-2021 7:30pm CEST
Few Clouds
Few Clouds
 Viento del NE
Viento: NE 19 km/h
Temperatura: 29°C
Indice Calor: 32°C
Rocío: 22°C
Humedad: 66%
Barómetro: 1009 hPa
Clouds: Few Clouds
Visibility: 10 km
Cloud details: Few Clouds 914 m
2021/07/23 17:30 LEVC 231730Z 05010KT 9999 FEW030 29/22 Q1009 NOSIG
LEGE - Gerona/Costa Bra, Spain
Distance from station: N 276km
Actualización: Fri, 23-Jul-2021 7:30pm CEST
Despejado
Despejado
 Viento del SSO
Viento: SSO 35 km/h
Temperatura: 32°C
Rocío: 12°C
Humedad: 29%
Barómetro: 1010 hPa
Resumen: Despejado
Visibility: greater than 10 km
2021/07/23 17:30 LEGE 231730Z 21019KT 190V250 CAVOK 32/12 Q1010
 
LEAL - Alicante/El Alte, Spain
Distance from station: OSO 344km
Actualización: Fri, 23-Jul-2021 7:30pm CEST
Despejado
Despejado
 Viento del E
Viento: E 9 km/h
Temperatura: 29°C
Indice Calor: 31°C
Rocío: 20°C
Humedad: 58%
Barómetro: 1010 hPa
Resumen: Despejado
Visibility: greater than 10 km
2021/07/23 17:30 LEAL 231730Z 08005KT CAVOK 29/20 Q1010 NOSIG
LEAM - Almeria Airport, Spain
Distance from station: SSO 56km
Actualización: Fri, 23-Jul-2021 7:30pm CEST
Despejado
Despejado
 Viento del SO
Viento: SO 9 km/h
Temperatura: 28°C
Indice Calor: 30°C
Rocío: 22°C
Humedad: 70%
Barómetro: 1009 hPa
Resumen: Despejado
Visibility: greater than 10 km
2021/07/23 17:30 LEAM 231730Z 22005KT 170V260 CAVOK 28/22 Q1009
 
LEZG - Zaragoza (mil/Ci, Spain
Distance from station: NO 431km
Actualización: Fri, 23-Jul-2021 7:30pm CEST
Despejado
Despejado
 Viento del E
Viento: E 6 km/h
Temperatura: 36°C
Rocío: 16°C
Humedad: 30%
Barómetro: 1006 hPa
Resumen: Despejado
Visibility: greater than 10 km
2021/07/23 17:30 LEZG 231730Z 08003KT CAVOK 36/16 Q1006
LEMD - Madrid/Barajas, Spain
Distance from station: ONO 234km
Actualización: Fri, 23-Jul-2021 7:30pm CEST
Despejado
Despejado
 Viento del OSO
Viento: OSO 24 km/h
Temperatura: 34°C
Rocío: 5°C
Humedad: 16%
Barómetro: 1011 hPa
Resumen: Despejado
Visibility: greater than 10 km
2021/07/23 17:30 LEMD 231730Z 25013KT CAVOK 34/05 Q1011 NOSIG
 
LEGR - Granada Airport, Spain
Distance from station: OSO 62km
Actualización: Fri, 23-Jul-2021 7:30pm CEST
Despejado
Despejado
 Viento del ONO
Viento: ONO 17 km/h
Temperatura: 37°C
Rocío: 10°C
Humedad: 19%
Barómetro: 1013 hPa
Resumen: Despejado
Visibility: greater than 10 km
2021/07/23 17:30 LEGR 231730Z 29009KT 260V320 CAVOK 37/10 Q1013
LEMG - Malaga (civ/Mil), Spain
Distance from station: OSO 227km
Actualización: Fri, 23-Jul-2021 7:30pm CEST
Despejado
Despejado
 Viento del ESE
Viento: ESE 15 km/h
Temperatura: 28°C
Indice Calor: 30°C
Rocío: 21°C
Humedad: 66%
Barómetro: 1010 hPa
Resumen: Despejado
Visibility: greater than 10 km
2021/07/23 17:30 LEMG 231730Z 12008KT CAVOK 28/21 Q1010 NOSIG
 
LEZL - Sevilla (civ/Mil, Spain
Distance from station: S 318km
Actualización: Fri, 23-Jul-2021 7:30pm CEST
Despejado
Despejado
 Viento del O
Viento: O 13 km/h
Temperatura: 37°C
Rocío: 3°C
Humedad: 12%
Barómetro: 1009 hPa
Resumen: Despejado
Visibility: greater than 10 km
2021/07/23 17:30 LEZL 231730Z 26007KT 200V300 CAVOK 37/03 Q1009 NOSIG
LEVT - Vitoria, Spain
Distance from station: NO 226km
Actualización: Fri, 23-Jul-2021 7:30pm CEST
Muy nuboso
Muy nuboso
 Viento del NNE
Viento: NNE 24 km/h
Temperatura: 19°C
Rocío: 16°C
Humedad: 83%
Barómetro: 1014 hPa
Clouds: Muy nuboso
Visibility: 10 km
Cloud details: Few Clouds 671 m
Muy nuboso 914 m
2021/07/23 17:30 LEVT 231730Z 02013KT 360V060 9999 FEW022 BKN030 19/16 Q1014
 
LEBB - Bilbao/Sondica, Spain
Distance from station: NNO 235km
Actualización: Fri, 23-Jul-2021 7:30pm CEST
Parcialmente nuboso
Parcialmente nuboso
 Viento del NO
Viento: NO 13 km/h
Temperatura: 23°C
Rocío: 16°C
Humedad: 65%
Barómetro: 1013 hPa
Clouds: Parcialmente nuboso
Visibility: 10 km
Cloud details: Few Clouds 914 m
Parcialmente nuboso 1737 m
2021/07/23 17:30 LEBB 231730Z 32007KT 290V360 9999 FEW030 SCT057 23/16 Q1013 NOSIG
LESO - San Sebastian/Fu, Spain
Distance from station: N 231km
Actualización: Fri, 23-Jul-2021 7:40pm CEST
Muy nuboso
Muy nuboso
 Viento del varies
Viento: varies 4 km/h
Temperatura: 20°C
Rocío: 19°C
Humedad: 94%
Barómetro: 1013 hPa
Clouds: Muy nuboso
Visibility: 8 km
Cloud details: Few Clouds 91 m
Parcialmente nuboso 366 m
Muy nuboso 610 m
2021/07/23 17:40 LESO 231740Z VRB02KT 8000 FEW003 SCT012 BKN020 20/19 Q1013
 
LEVD - Valladolid(Mil/C, Spain
Distance from station: ONO 239km
Actualización: Fri, 23-Jul-2021 7:30pm CEST
Despejado
Despejado
 Viento del O
Viento: O 28 km/h
Temperatura: 24°C
Rocío: 7°C
Humedad: 34%
Barómetro: 1014 hPa
Resumen: Despejado
Visibility: greater than 10 km
2021/07/23 17:30 LEVD 231730Z 27015KT CAVOK 24/07 Q1014
LESA - Salamanca (civ/M, Spain
Distance from station: ONO 349km
Actualización: Fri, 23-Jul-2021 7:30pm CEST
Despejado
Despejado
 Viento del NO
Viento: NO 17 km/h
Temperatura: 24°C
Rocío: 9°C
Humedad: 39%
Barómetro: 1014 hPa
Resumen: Despejado
Visibility: greater than 10 km
2021/07/23 17:30 LESA 231730Z 31009KT 280V350 CAVOK 24/09 Q1014
 
LEXJ - Santander/Paraya, Spain
Distance from station: NNO 247km
Actualización: Fri, 23-Jul-2021 7:30pm CEST
Muy nuboso
Muy nuboso
 Viento del ONO
Viento: ONO 13 km/h
Temperatura: 21°C
Rocío: 16°C
Humedad: 73%
Barómetro: 1013 hPa
Clouds: Muy nuboso
Visibility: 10 km
Cloud details: Muy nuboso 1890 m
2021/07/23 17:30 LEXJ 231730Z 30007KT 260V340 9999 BKN062 21/16 Q1013
LEAS - Asturias/Aviles, Spain
Distance from station: NO 214km
Actualización: Fri, 23-Jul-2021 7:30pm CEST
Muy nuboso
Muy nuboso
 Viento del NO
Viento: NO 9 km/h
Temperatura: 18°C
Rocío: 17°C
Humedad: 94%
Barómetro: 1013 hPa
Clouds: Muy nuboso
Visibility: 10 km
Cloud details: Few Clouds 61 m
Parcialmente nuboso 549 m
Muy nuboso 732 m
2021/07/23 17:30 LEAS 231730Z 32005KT 280V030 9999 FEW002 SCT018 BKN024 18/17 Q1013 TEMPO SHRA SCT030TCU
 
LECO - La Coruna/Alvedr, Spain
Distance from station: ONO 222km
Actualización: Fri, 23-Jul-2021 7:30pm CEST
Muy nuboso
Muy nuboso
 Viento del OSO
Viento: OSO 17 km/h
Temperatura: 20°C
Rocío: 15°C
Humedad: 73%
Barómetro: 1014 hPa
Clouds: Muy nuboso
Visibility: 10 km
Cloud details: Parcialmente nuboso 853 m
Muy nuboso 1219 m
2021/07/23 17:30 LECO 231730Z 25009KT 200V300 9999 SCT028 BKN040 20/15 Q1014 NOSIG
LEVX - Vigo/Peinador, Spain
Distance from station: O 214km
Actualización: Fri, 23-Jul-2021 7:30pm CEST
Muy nuboso
Muy nuboso
 Viento del O
Viento: O 17 km/h
Temperatura: 19°C
Rocío: 14°C
Humedad: 73%
Barómetro: 1016 hPa
Clouds: Muy nuboso
Visibility: 10 km
Cloud details: Muy nuboso 610 m
2021/07/23 17:30 LEVX 231730Z 26009KT 210V280 9999 BKN020 19/14 Q1016 NOSIG